CheckWX is a tool to help pilots better visualize weather data.  It is not intended as a substitute for an official pre-flight weather briefing.

10:48:07 UTC

LGSR TAF
Santorini Airport
Santorini Island, Greece
TAF LGSR 031100Z 0312/0412 09010KT 9999 FEW025 BKN030 PROB30 TEMPO 0312/0318 5000 RA SCT010 BKN020 BECMG 0314/0316 10015G25KT BECMG 0322/0324 10025KT BECMG 0403/0405 11030G40KT

Apr-3@
12:00 UTC

Apr-3 @ 12:00 UTC

Apr-3@
14:00 UTC

Apr-3 @ 14:00 UTC

TAF LGSR 031100Z 0312/0412 09010KT 9999 FEW025 BKN030

Expired

Wind
  • 090° at 10 KTS
Cloud Levels
  • Few at 2,500' AGL
  • Broken at 3,000' AGL

Apr-3@
12:00 UTC

Apr-3 @ 12:00 UTC

Apr-3@
18:00 UTC

Apr-3 @ 18:00 UTC

PROB30 TEMPO 0312/0318 5000 RA SCT010 BKN020

Expired

Conditions
Rain
Cloud Levels
  • Scattered at 1,000' AGL
  • Broken at 2,000' AGL

Apr-3@
14:00 UTC

Apr-3 @ 14:00 UTC

Apr-3@
22:00 UTC

Apr-3 @ 22:00 UTC

BECMG 0314/0316 10015G25KT

Expired

Wind
  • 100° at 15 KTS
  • {Gusting to 25 KTS
Cloud Levels
  • Few at 2,500' AGL
  • Broken at 3,000' AGL

Apr-3@
22:00 UTC

Apr-3 @ 22:00 UTC

Apr-4@
03:00 UTC

Apr-4 @ 03:00 UTC

BECMG 0322/0324 10025KT

Expired

Wind
  • 100° at 25 KTS
Cloud Levels
  • Few at 2,500' AGL
  • Broken at 3,000' AGL

Apr-4@
03:00 UTC

Apr-4 @ 03:00 UTC

Apr-4@
12:00 UTC

Apr-4 @ 12:00 UTC

BECMG 0403/0405 11030G40KT

Becoming

Becoming Conditions expected by Sat, Apr 4, 2020 @ 05:00 UTC

Wind
  • 110° at 30 KTS
  • {Gusting to 40 KTS
Cloud Levels
  • Few at 2,500' AGL
  • Broken at 3,000' AGL